sensor_id;sensor_type;location;lat;lon;timestamp;P1;durP1;ratioP1;P2;durP2;ratioP2
50757;SDS011;36732;47.980;11.652;2022-12-05T00:01:25;8.57;;;5.30;;
50757;SDS011;36732;47.980;11.652;2022-12-05T00:04:07;6.15;;;5.18;;
50757;SDS011;36732;47.980;11.652;2022-12-05T00:06:35;7.82;;;5.43;;
50757;SDS011;36732;47.980;11.652;2022-12-05T00:09:04;6.28;;;5.05;;
50757;SDS011;36732;47.980;11.652;2022-12-05T00:11:38;6.55;;;5.38;;
50757;SDS011;36732;47.980;11.652;2022-12-05T00:14:06;7.18;;;5.93;;
50757;SDS011;36732;47.980;11.652;2022-12-05T00:16:34;8.20;;;5.70;;
50757;SDS011;36732;47.980;11.652;2022-12-05T00:19:02;8.10;;;5.93;;
50757;SDS011;36732;47.980;11.652;2022-12-05T00:21:31;8.35;;;6.15;;
50757;SDS011;36732;47.980;11.652;2022-12-05T00:23:59;7.95;;;5.45;;
50757;SDS011;36732;47.980;11.652;2022-12-05T00:26:29;7.07;;;5.30;;
50757;SDS011;36732;47.980;11.652;2022-12-05T00:28:56;7.75;;;5.60;;
50757;SDS011;36732;47.980;11.652;2022-12-05T00:31:23;7.25;;;5.30;;
50757;SDS011;36732;47.980;11.652;2022-12-05T00:33:51;6.38;;;5.60;;
50757;SDS011;36732;47.980;11.652;2022-12-05T00:36:20;6.10;;;5.45;;
50757;SDS011;36732;47.980;11.652;2022-12-05T00:38:50;7.88;;;6.10;;
50757;SDS011;36732;47.980;11.652;2022-12-05T00:41:19;7.93;;;6.15;;
50757;SDS011;36732;47.980;11.652;2022-12-05T00:43:47;8.35;;;5.47;;
50757;SDS011;36732;47.980;11.652;2022-12-05T00:46:18;7.32;;;5.88;;
50757;SDS011;36732;47.980;11.652;2022-12-05T00:48:53;8.15;;;5.88;;
50757;SDS011;36732;47.980;11.652;2022-12-05T00:51:25;6.40;;;5.05;;
50757;SDS011;36732;47.980;11.652;2022-12-05T00:53:58;6.97;;;5.65;;
50757;SDS011;36732;47.980;11.652;2022-12-05T00:56:27;7.18;;;5.72;;
50757;SDS011;36732;47.980;11.652;2022-12-05T00:58:55;6.63;;;5.63;;
50757;SDS011;36732;47.980;11.652;2022-12-05T01:01:23;7.07;;;5.18;;
50757;SDS011;36732;47.980;11.652;2022-12-05T01:03:52;6.95;;;5.82;;
50757;SDS011;36732;47.980;11.652;2022-12-05T01:06:20;8.48;;;5.50;;
50757;SDS011;36732;47.980;11.652;2022-12-05T01:08:46;7.78;;;5.72;;
50757;SDS011;36732;47.980;11.652;2022-12-05T01:11:16;7.10;;;5.68;;
50757;SDS011;36732;47.980;11.652;2022-12-05T01:13:43;8.63;;;5.72;;
50757;SDS011;36732;47.980;11.652;2022-12-05T01:16:13;8.38;;;5.70;;
50757;SDS011;36732;47.980;11.652;2022-12-05T01:18:53;6.43;;;5.30;;
50757;SDS011;36732;47.980;11.652;2022-12-05T01:21:19;5.75;;;4.97;;
50757;SDS011;36732;47.980;11.652;2022-12-05T01:23:45;7.55;;;6.13;;
50757;SDS011;36732;47.980;11.652;2022-12-05T01:26:12;6.88;;;5.40;;
50757;SDS011;36732;47.980;11.652;2022-12-05T01:28:40;6.90;;;5.50;;
50757;SDS011;36732;47.980;11.652;2022-12-05T01:31:17;5.93;;;5.00;;
50757;SDS011;36732;47.980;11.652;2022-12-05T01:33:50;7.85;;;6.50;;
50757;SDS011;36732;47.980;11.652;2022-12-05T01:36:17;8.23;;;6.55;;
50757;SDS011;36732;47.980;11.652;2022-12-05T01:38:44;7.72;;;6.68;;
50757;SDS011;36732;47.980;11.652;2022-12-05T01:41:11;6.93;;;5.65;;
50757;SDS011;36732;47.980;11.652;2022-12-05T01:43:56;6.28;;;5.20;;
50757;SDS011;36732;47.980;11.652;2022-12-05T01:46:49;8.38;;;6.05;;
50757;SDS011;36732;47.980;11.652;2022-12-05T01:54:49;8.73;;;6.32;;
50757;SDS011;36732;47.980;11.652;2022-12-05T01:57:21;8.23;;;6.28;;
50757;SDS011;36732;47.980;11.652;2022-12-05T01:59:48;7.72;;;5.70;;
50757;SDS011;36732;47.980;11.652;2022-12-05T02:02:27;7.75;;;6.35;;
50757;SDS011;36732;47.980;11.652;2022-12-05T02:04:59;14.52;;;6.85;;
50757;SDS011;36732;47.980;11.652;2022-12-05T02:07:32;8.45;;;6.43;;
50757;SDS011;36732;47.980;11.652;2022-12-05T02:09:59;8.07;;;6.38;;
50757;SDS011;36732;47.980;11.652;2022-12-05T02:12:25;10.15;;;7.05;;
50757;SDS011;36732;47.980;11.652;2022-12-05T02:14:56;9.05;;;6.28;;
50757;SDS011;36732;47.980;11.652;2022-12-05T02:20:17;8.60;;;6.65;;
50757;SDS011;36732;47.980;11.652;2022-12-05T02:26:36;7.13;;;5.60;;
50757;SDS011;36732;47.980;11.652;2022-12-05T02:36:55;7.13;;;5.63;;
50757;SDS011;36732;47.980;11.652;2022-12-05T02:39:50;7.80;;;6.15;;
50757;SDS011;36732;47.980;11.652;2022-12-05T02:43:12;8.85;;;6.90;;
50757;SDS011;36732;47.980;11.652;2022-12-05T02:45:29;7.88;;;5.78;;
50757;SDS011;36732;47.980;11.652;2022-12-05T02:47:58;6.60;;;5.82;;
50757;SDS011;36732;47.980;11.652;2022-12-05T02:50:27;8.52;;;6.18;;
50757;SDS011;36732;47.980;11.652;2022-12-05T02:52:59;9.57;;;6.60;;
50757;SDS011;36732;47.980;11.652;2022-12-05T02:55:30;8.45;;;6.32;;
50757;SDS011;36732;47.980;11.652;2022-12-05T02:57:57;8.15;;;6.60;;
50757;SDS011;36732;47.980;11.652;2022-12-05T03:00:29;6.70;;;5.82;;
50757;SDS011;36732;47.980;11.652;2022-12-05T03:02:55;7.50;;;6.22;;
50757;SDS011;36732;47.980;11.652;2022-12-05T03:08:12;8.55;;;6.70;;
50757;SDS011;36732;47.980;11.652;2022-12-05T03:10:44;9.85;;;6.40;;
50757;SDS011;36732;47.980;11.652;2022-12-05T03:13:17;9.02;;;7.05;;
50757;SDS011;36732;47.980;11.652;2022-12-05T03:15:52;7.53;;;6.00;;
50757;SDS011;36732;47.980;11.652;2022-12-05T03:18:23;7.15;;;5.90;;
50757;SDS011;36732;47.980;11.652;2022-12-05T03:23:33;7.95;;;6.53;;
50757;SDS011;36732;47.980;11.652;2022-12-05T03:34:38;9.68;;;7.40;;
50757;SDS011;36732;47.980;11.652;2022-12-05T03:37:14;7.97;;;6.30;;
50757;SDS011;36732;47.980;11.652;2022-12-05T03:39:52;8.13;;;6.10;;
50757;SDS011;36732;47.980;11.652;2022-12-05T03:42:30;6.90;;;5.95;;
50757;SDS011;36732;47.980;11.652;2022-12-05T03:45:00;8.50;;;6.35;;
50757;SDS011;36732;47.980;11.652;2022-12-05T03:47:51;7.50;;;5.55;;
50757;SDS011;36732;47.980;11.652;2022-12-05T03:50:51;8.73;;;6.75;;
50757;SDS011;36732;47.980;11.652;2022-12-05T03:53:21;7.78;;;6.10;;
50757;SDS011;36732;47.980;11.652;2022-12-05T03:56:14;7.40;;;6.38;;
50757;SDS011;36732;47.980;11.652;2022-12-05T03:59:08;7.82;;;6.22;;
50757;SDS011;36732;47.980;11.652;2022-12-05T04:01:42;7.50;;;6.35;;
50757;SDS011;36732;47.980;11.652;2022-12-05T04:04:12;7.70;;;6.13;;
50757;SDS011;36732;47.980;11.652;2022-12-05T04:06:43;8.18;;;6.45;;
50757;SDS011;36732;47.980;11.652;2022-12-05T04:09:17;8.50;;;6.75;;
50757;SDS011;36732;47.980;11.652;2022-12-05T04:11:56;8.45;;;6.45;;
50757;SDS011;36732;47.980;11.652;2022-12-05T04:14:39;8.65;;;6.70;;
50757;SDS011;36732;47.980;11.652;2022-12-05T04:20:03;8.48;;;6.25;;
50757;SDS011;36732;47.980;11.652;2022-12-05T04:22:56;8.48;;;6.13;;
50757;SDS011;36732;47.980;11.652;2022-12-05T04:25:22;7.85;;;6.15;;
50757;SDS011;36732;47.980;11.652;2022-12-05T04:33:44;8.07;;;6.70;;
50757;SDS011;36732;47.980;11.652;2022-12-05T04:41:22;8.35;;;6.75;;
50757;SDS011;36732;47.980;11.652;2022-12-05T04:44:11;9.15;;;6.68;;
50757;SDS011;36732;47.980;11.652;2022-12-05T04:46:40;7.68;;;6.53;;
50757;SDS011;36732;47.980;11.652;2022-12-05T04:49:09;8.85;;;6.75;;
50757;SDS011;36732;47.980;11.652;2022-12-05T04:51:41;7.45;;;6.40;;
50757;SDS011;36732;47.980;11.652;2022-12-05T04:54:14;8.45;;;7.05;;
50757;SDS011;36732;47.980;11.652;2022-12-05T04:56:45;7.97;;;6.57;;
50757;SDS011;36732;47.980;11.652;2022-12-05T04:59:15;9.05;;;7.07;;
50757;SDS011;36732;47.980;11.652;2022-12-05T05:01:47;7.32;;;6.03;;
50757;SDS011;36732;47.980;11.652;2022-12-05T05:04:21;7.20;;;6.10;;
50757;SDS011;36732;47.980;11.652;2022-12-05T05:06:56;8.07;;;6.60;;
50757;SDS011;36732;47.980;11.652;2022-12-05T05:09:22;8.07;;;6.65;;
50757;SDS011;36732;47.980;11.652;2022-12-05T05:11:47;9.48;;;7.15;;
50757;SDS011;36732;47.980;11.652;2022-12-05T05:14:13;8.88;;;7.35;;
50757;SDS011;36732;47.980;11.652;2022-12-05T05:16:39;8.75;;;6.47;;
50757;SDS011;36732;47.980;11.652;2022-12-05T05:19:06;8.65;;;7.00;;
50757;SDS011;36732;47.980;11.652;2022-12-05T05:21:37;11.57;;;10.50;;
50757;SDS011;36732;47.980;11.652;2022-12-05T05:24:06;8.82;;;7.07;;
50757;SDS011;36732;47.980;11.652;2022-12-05T05:26:36;8.32;;;7.05;;
50757;SDS011;36732;47.980;11.652;2022-12-05T05:29:04;8.30;;;6.65;;
50757;SDS011;36732;47.980;11.652;2022-12-05T05:31:31;7.30;;;6.35;;
50757;SDS011;36732;47.980;11.652;2022-12-05T05:33:57;8.63;;;6.60;;
50757;SDS011;36732;47.980;11.652;2022-12-05T05:36:24;9.38;;;8.00;;
50757;SDS011;36732;47.980;11.652;2022-12-05T05:38:52;9.05;;;7.78;;
50757;SDS011;36732;47.980;11.652;2022-12-05T05:41:21;9.35;;;7.78;;
50757;SDS011;36732;47.980;11.652;2022-12-05T05:43:56;10.55;;;8.23;;
50757;SDS011;36732;47.980;11.652;2022-12-05T05:46:23;8.68;;;7.32;;
50757;SDS011;36732;47.980;11.652;2022-12-05T05:48:52;9.02;;;6.88;;
50757;SDS011;36732;47.980;11.652;2022-12-05T05:51:18;7.97;;;6.88;;
50757;SDS011;36732;47.980;11.652;2022-12-05T05:53:45;9.25;;;6.60;;
50757;SDS011;36732;47.980;11.652;2022-12-05T05:56:13;8.55;;;6.60;;
50757;SDS011;36732;47.980;11.652;2022-12-05T05:58:41;7.40;;;6.40;;
50757;SDS011;36732;47.980;11.652;2022-12-05T06:01:11;8.90;;;7.28;;
50757;SDS011;36732;47.980;11.652;2022-12-05T06:03:38;8.30;;;6.47;;
50757;SDS011;36732;47.980;11.652;2022-12-05T06:06:05;8.25;;;6.18;;
50757;SDS011;36732;47.980;11.652;2022-12-05T06:08:34;7.20;;;6.18;;
50757;SDS011;36732;47.980;11.652;2022-12-05T06:11:10;9.90;;;6.70;;
50757;SDS011;36732;47.980;11.652;2022-12-05T06:13:44;7.40;;;6.28;;
50757;SDS011;36732;47.980;11.652;2022-12-05T06:16:11;8.50;;;6.57;;
50757;SDS011;36732;47.980;11.652;2022-12-05T06:18:39;9.05;;;6.68;;
50757;SDS011;36732;47.980;11.652;2022-12-05T06:21:06;8.55;;;6.95;;
50757;SDS011;36732;47.980;11.652;2022-12-05T06:23:32;7.90;;;6.45;;
50757;SDS011;36732;47.980;11.652;2022-12-05T06:26:00;9.35;;;7.05;;
50757;SDS011;36732;47.980;11.652;2022-12-05T06:28:26;8.40;;;6.70;;
50757;SDS011;36732;47.980;11.652;2022-12-05T06:30:52;7.95;;;6.93;;
50757;SDS011;36732;47.980;11.652;2022-12-05T06:33:18;7.78;;;6.45;;
50757;SDS011;36732;47.980;11.652;2022-12-05T06:35:44;8.43;;;7.28;;
50757;SDS011;36732;47.980;11.652;2022-12-05T06:38:10;8.35;;;7.00;;
50757;SDS011;36732;47.980;11.652;2022-12-05T06:40:40;8.30;;;6.85;;
50757;SDS011;36732;47.980;11.652;2022-12-05T06:43:08;7.18;;;6.20;;
50757;SDS011;36732;47.980;11.652;2022-12-05T06:45:37;7.43;;;6.60;;
50757;SDS011;36732;47.980;11.652;2022-12-05T06:48:04;9.65;;;7.32;;
50757;SDS011;36732;47.980;11.652;2022-12-05T06:50:30;8.82;;;6.68;;
50757;SDS011;36732;47.980;11.652;2022-12-05T06:52:56;9.07;;;7.20;;
50757;SDS011;36732;47.980;11.652;2022-12-05T06:55:22;7.75;;;6.22;;
50757;SDS011;36732;47.980;11.652;2022-12-05T06:57:47;7.40;;;5.97;;
50757;SDS011;36732;47.980;11.652;2022-12-05T07:00:13;7.00;;;6.28;;
50757;SDS011;36732;47.980;11.652;2022-12-05T07:02:58;7.60;;;6.13;;
50757;SDS011;36732;47.980;11.652;2022-12-05T07:05:24;9.60;;;6.75;;
50757;SDS011;36732;47.980;11.652;2022-12-05T07:07:50;9.50;;;6.65;;
50757;SDS011;36732;47.980;11.652;2022-12-05T07:10:15;8.18;;;6.97;;
50757;SDS011;36732;47.980;11.652;2022-12-05T07:12:41;9.15;;;7.68;;
50757;SDS011;36732;47.980;11.652;2022-12-05T07:15:07;8.25;;;6.03;;
50757;SDS011;36732;47.980;11.652;2022-12-05T07:17:36;8.27;;;6.80;;
50757;SDS011;36732;47.980;11.652;2022-12-05T07:20:03;8.25;;;6.72;;
50757;SDS011;36732;47.980;11.652;2022-12-05T07:22:33;6.75;;;5.80;;
50757;SDS011;36732;47.980;11.652;2022-12-05T07:25:00;8.40;;;6.63;;
50757;SDS011;36732;47.980;11.652;2022-12-05T07:27:26;7.10;;;6.15;;
50757;SDS011;36732;47.980;11.652;2022-12-05T07:29:52;8.13;;;6.38;;
50757;SDS011;36732;47.980;11.652;2022-12-05T07:32:18;8.15;;;6.93;;
50757;SDS011;36732;47.980;11.652;2022-12-05T07:34:43;6.80;;;5.60;;
50757;SDS011;36732;47.980;11.652;2022-12-05T07:37:09;8.38;;;6.40;;
50757;SDS011;36732;47.980;11.652;2022-12-05T07:39:35;9.18;;;6.90;;
50757;SDS011;36732;47.980;11.652;2022-12-05T07:42:00;7.55;;;6.22;;
50757;SDS011;36732;47.980;11.652;2022-12-05T07:44:26;8.07;;;6.22;;
50757;SDS011;36732;47.980;11.652;2022-12-05T07:46:52;8.02;;;6.18;;
50757;SDS011;36732;47.980;11.652;2022-12-05T07:49:18;9.45;;;7.35;;
50757;SDS011;36732;47.980;11.652;2022-12-05T07:51:43;8.02;;;6.30;;
50757;SDS011;36732;47.980;11.652;2022-12-05T07:54:09;8.60;;;6.50;;
50757;SDS011;36732;47.980;11.652;2022-12-05T07:56:35;8.98;;;7.10;;
50757;SDS011;36732;47.980;11.652;2022-12-05T07:59:00;8.82;;;7.07;;
50757;SDS011;36732;47.980;11.652;2022-12-05T08:01:27;6.88;;;5.50;;
50757;SDS011;36732;47.980;11.652;2022-12-05T08:03:54;8.68;;;7.10;;
50757;SDS011;36732;47.980;11.652;2022-12-05T08:06:23;7.55;;;6.75;;
50757;SDS011;36732;47.980;11.652;2022-12-05T08:08:52;8.07;;;6.57;;
50757;SDS011;36732;47.980;11.652;2022-12-05T08:11:20;6.93;;;6.10;;
50757;SDS011;36732;47.980;11.652;2022-12-05T08:13:55;8.25;;;6.05;;
50757;SDS011;36732;47.980;11.652;2022-12-05T08:16:23;6.72;;;5.43;;
50757;SDS011;36732;47.980;11.652;2022-12-05T08:18:54;7.93;;;6.03;;
50757;SDS011;36732;47.980;11.652;2022-12-05T08:21:22;6.57;;;5.60;;
50757;SDS011;36732;47.980;11.652;2022-12-05T08:23:51;8.55;;;6.50;;
50757;SDS011;36732;47.980;11.652;2022-12-05T08:26:18;7.60;;;5.88;;
50757;SDS011;36732;47.980;11.652;2022-12-05T08:28:53;9.82;;;6.30;;
50757;SDS011;36732;47.980;11.652;2022-12-05T08:31:41;6.80;;;5.78;;
50757;SDS011;36732;47.980;11.652;2022-12-05T08:34:13;7.15;;;5.07;;
50757;SDS011;36732;47.980;11.652;2022-12-05T08:36:40;6.45;;;5.45;;
50757;SDS011;36732;47.980;11.652;2022-12-05T08:39:07;7.03;;;5.65;;
50757;SDS011;36732;47.980;11.652;2022-12-05T08:41:38;6.32;;;5.38;;
50757;SDS011;36732;47.980;11.652;2022-12-05T08:44:04;5.57;;;4.97;;
50757;SDS011;36732;47.980;11.652;2022-12-05T08:46:32;6.50;;;5.55;;
50757;SDS011;36732;47.980;11.652;2022-12-05T08:49:00;6.55;;;5.60;;
50757;SDS011;36732;47.980;11.652;2022-12-05T08:51:29;6.88;;;6.10;;
50757;SDS011;36732;47.980;11.652;2022-12-05T08:53:55;6.72;;;5.75;;
50757;SDS011;36732;47.980;11.652;2022-12-05T08:56:22;6.22;;;5.13;;
50757;SDS011;36732;47.980;11.652;2022-12-05T08:58:48;7.78;;;5.78;;
50757;SDS011;36732;47.980;11.652;2022-12-05T09:01:14;6.43;;;5.63;;
50757;SDS011;36732;47.980;11.652;2022-12-05T09:03:43;6.40;;;5.68;;
50757;SDS011;36732;47.980;11.652;2022-12-05T09:06:11;7.10;;;5.82;;
50757;SDS011;36732;47.980;11.652;2022-12-05T09:08:43;6.32;;;5.25;;
50757;SDS011;36732;47.980;11.652;2022-12-05T09:11:11;6.85;;;5.65;;
50757;SDS011;36732;47.980;11.652;2022-12-05T09:13:43;7.53;;;5.60;;
50757;SDS011;36732;47.980;11.652;2022-12-05T09:16:11;6.95;;;5.05;;
50757;SDS011;36732;47.980;11.652;2022-12-05T09:18:42;6.25;;;5.50;;
50757;SDS011;36732;47.980;11.652;2022-12-05T09:21:13;6.25;;;5.05;;
50757;SDS011;36732;47.980;11.652;2022-12-05T09:26:10;6.65;;;5.57;;
50757;SDS011;36732;47.980;11.652;2022-12-05T09:28:38;7.75;;;6.30;;
50757;SDS011;36732;47.980;11.652;2022-12-05T09:31:06;6.65;;;5.65;;
50757;SDS011;36732;47.980;11.652;2022-12-05T09:33:35;7.10;;;6.40;;
50757;SDS011;36732;47.980;11.652;2022-12-05T09:38:54;5.40;;;4.88;;
50757;SDS011;36732;47.980;11.652;2022-12-05T09:41:34;6.22;;;5.55;;
50757;SDS011;36732;47.980;11.652;2022-12-05T10:01:16;6.75;;;5.70;;
50757;SDS011;36732;47.980;11.652;2022-12-05T10:12:45;5.28;;;4.68;;
50757;SDS011;36732;47.980;11.652;2022-12-05T10:18:02;5.35;;;4.40;;
50757;SDS011;36732;47.980;11.652;2022-12-05T10:21:04;5.65;;;4.47;;
50757;SDS011;36732;47.980;11.652;2022-12-05T10:23:38;5.68;;;4.63;;
50757;SDS011;36732;47.980;11.652;2022-12-05T10:26:34;6.20;;;4.93;;
50757;SDS011;36732;47.980;11.652;2022-12-05T10:32:07;4.85;;;4.20;;
50757;SDS011;36732;47.980;11.652;2022-12-05T10:34:44;5.00;;;4.05;;
50757;SDS011;36732;47.980;11.652;2022-12-05T10:37:14;5.47;;;4.10;;
50757;SDS011;36732;47.980;11.652;2022-12-05T10:39:43;5.93;;;4.20;;
50757;SDS011;36732;47.980;11.652;2022-12-05T10:42:16;5.07;;;4.03;;
50757;SDS011;36732;47.980;11.652;2022-12-05T10:44:53;5.28;;;4.20;;
50757;SDS011;36732;47.980;11.652;2022-12-05T10:47:22;4.93;;;3.90;;
50757;SDS011;36732;47.980;11.652;2022-12-05T10:49:48;4.88;;;4.30;;
50757;SDS011;36732;47.980;11.652;2022-12-05T10:52:14;4.82;;;4.32;;
50757;SDS011;36732;47.980;11.652;2022-12-05T10:54:45;5.90;;;4.63;;
50757;SDS011;36732;47.980;11.652;2022-12-05T10:57:20;5.68;;;4.60;;
50757;SDS011;36732;47.980;11.652;2022-12-05T10:59:46;5.45;;;4.70;;
50757;SDS011;36732;47.980;11.652;2022-12-05T11:02:25;5.00;;;4.30;;
50757;SDS011;36732;47.980;11.652;2022-12-05T11:04:54;4.55;;;4.07;;
50757;SDS011;36732;47.980;11.652;2022-12-05T11:10:21;5.25;;;4.57;;
50757;SDS011;36732;47.980;11.652;2022-12-05T11:12:47;5.60;;;4.60;;
50757;SDS011;36732;47.980;11.652;2022-12-05T11:17:49;5.50;;;4.57;;
50757;SDS011;36732;47.980;11.652;2022-12-05T11:22:46;4.53;;;3.80;;
50757;SDS011;36732;47.980;11.652;2022-12-05T11:27:55;5.10;;;4.45;;
50757;SDS011;36732;47.980;11.652;2022-12-05T11:30:24;5.10;;;4.18;;
50757;SDS011;36732;47.980;11.652;2022-12-05T11:35:49;4.80;;;3.83;;
50757;SDS011;36732;47.980;11.652;2022-12-05T11:38:18;4.68;;;3.85;;
50757;SDS011;36732;47.980;11.652;2022-12-05T11:55:46;4.20;;;3.63;;
50757;SDS011;36732;47.980;11.652;2022-12-05T12:22:33;3.65;;;2.85;;
50757;SDS011;36732;47.980;11.652;2022-12-05T12:25:39;3.40;;;3.10;;
50757;SDS011;36732;47.980;11.652;2022-12-05T12:31:37;2.70;;;2.50;;
50757;SDS011;36732;47.980;11.652;2022-12-05T12:34:45;4.13;;;3.35;;
50757;SDS011;36732;47.980;11.652;2022-12-05T12:40:15;3.03;;;2.72;;
50757;SDS011;36732;47.980;11.652;2022-12-05T12:51:20;3.35;;;3.05;;
50757;SDS011;36732;47.980;11.652;2022-12-05T12:53:54;3.22;;;2.75;;
50757;SDS011;36732;47.980;11.652;2022-12-05T12:56:54;3.03;;;2.70;;
50757;SDS011;36732;47.980;11.652;2022-12-05T13:02:44;3.58;;;2.70;;
50757;SDS011;36732;47.980;11.652;2022-12-05T13:05:26;4.53;;;2.70;;
50757;SDS011;36732;47.980;11.652;2022-12-05T13:08:13;2.70;;;2.30;;
50757;SDS011;36732;47.980;11.652;2022-12-05T13:10:50;2.78;;;2.58;;
50757;SDS011;36732;47.980;11.652;2022-12-05T13:13:21;3.22;;;2.92;;
50757;SDS011;36732;47.980;11.652;2022-12-05T13:15:53;2.72;;;2.50;;
50757;SDS011;36732;47.980;11.652;2022-12-05T13:18:25;4.10;;;2.80;;
50757;SDS011;36732;47.980;11.652;2022-12-05T13:20:58;3.58;;;2.95;;
50757;SDS011;36732;47.980;11.652;2022-12-05T13:23:30;2.80;;;2.60;;
50757;SDS011;36732;47.980;11.652;2022-12-05T13:25:59;2.50;;;2.30;;
50757;SDS011;36732;47.980;11.652;2022-12-05T13:28:33;2.17;;;1.97;;
50757;SDS011;36732;47.980;11.652;2022-12-05T13:37:11;7.45;;;2.45;;
50757;SDS011;36732;47.980;11.652;2022-12-05T13:40:02;2.38;;;2.10;;
50757;SDS011;36732;47.980;11.652;2022-12-05T13:42:52;3.38;;;2.13;;
50757;SDS011;36732;47.980;11.652;2022-12-05T13:45:25;2.13;;;1.92;;
50757;SDS011;36732;47.980;11.652;2022-12-05T13:47:59;2.20;;;1.67;;
50757;SDS011;36732;47.980;11.652;2022-12-05T13:50:47;2.97;;;2.00;;
50757;SDS011;36732;47.980;11.652;2022-12-05T13:58:45;1.73;;;1.50;;
50757;SDS011;36732;47.980;11.652;2022-12-05T14:09:03;2.70;;;1.98;;
50757;SDS011;36732;47.980;11.652;2022-12-05T14:14:56;1.77;;;1.55;;
50757;SDS011;36732;47.980;11.652;2022-12-05T14:17:31;1.70;;;1.60;;
50757;SDS011;36732;47.980;11.652;2022-12-05T14:20:44;1.40;;;1.30;;
50757;SDS011;36732;47.980;11.652;2022-12-05T14:23:16;1.58;;;1.48;;
50757;SDS011;36732;47.980;11.652;2022-12-05T14:32:00;1.52;;;1.42;;
50757;SDS011;36732;47.980;11.652;2022-12-05T14:37:42;1.70;;;1.60;;
50757;SDS011;36732;47.980;11.652;2022-12-05T14:43:17;1.17;;;1.08;;
50757;SDS011;36732;47.980;11.652;2022-12-05T14:50:44;2.03;;;1.50;;
50757;SDS011;36732;47.980;11.652;2022-12-05T15:01:26;3.22;;;1.17;;
50757;SDS011;36732;47.980;11.652;2022-12-05T15:09:49;1.50;;;1.40;;
50757;SDS011;36732;47.980;11.652;2022-12-05T15:15:07;1.60;;;1.30;;
50757;SDS011;36732;47.980;11.652;2022-12-05T15:18:26;0.95;;;0.90;;
50757;SDS011;36732;47.980;11.652;2022-12-05T15:23:55;1.30;;;1.20;;
50757;SDS011;36732;47.980;11.652;2022-12-05T15:26:46;1.55;;;1.45;;
50757;SDS011;36732;47.980;11.652;2022-12-05T15:34:29;2.75;;;1.40;;
50757;SDS011;36732;47.980;11.652;2022-12-05T15:37:28;1.40;;;1.30;;
50757;SDS011;36732;47.980;11.652;2022-12-05T15:42:41;1.40;;;1.15;;
50757;SDS011;36732;47.980;11.652;2022-12-05T15:47:45;1.42;;;1.27;;
50757;SDS011;36732;47.980;11.652;2022-12-05T15:50:43;1.10;;;1.00;;
50757;SDS011;36732;47.980;11.652;2022-12-05T15:53:17;1.10;;;1.00;;
50757;SDS011;36732;47.980;11.652;2022-12-05T15:55:59;1.02;;;0.57;;
50757;SDS011;36732;47.980;11.652;2022-12-05T15:58:50;1.08;;;0.82;;
50757;SDS011;36732;47.980;11.652;2022-12-05T16:01:26;0.70;;;0.60;;
50757;SDS011;36732;47.980;11.652;2022-12-05T16:07:02;1.10;;;0.90;;
50757;SDS011;36732;47.980;11.652;2022-12-05T16:09:34;1.00;;;0.90;;
50757;SDS011;36732;47.980;11.652;2022-12-05T16:12:16;1.33;;;1.10;;
50757;SDS011;36732;47.980;11.652;2022-12-05T16:14:48;1.55;;;1.20;;
50757;SDS011;36732;47.980;11.652;2022-12-05T16:17:18;1.52;;;1.30;;
50757;SDS011;36732;47.980;11.652;2022-12-05T16:19:44;0.80;;;0.80;;
50757;SDS011;36732;47.980;11.652;2022-12-05T16:25:37;0.80;;;0.80;;
50757;SDS011;36732;47.980;11.652;2022-12-05T16:28:23;1.50;;;1.40;;
50757;SDS011;36732;47.980;11.652;2022-12-05T16:30:59;1.20;;;1.10;;
50757;SDS011;36732;47.980;11.652;2022-12-05T16:33:26;0.98;;;0.88;;
50757;SDS011;36732;47.980;11.652;2022-12-05T16:35:54;0.60;;;0.60;;
50757;SDS011;36732;47.980;11.652;2022-12-05T16:38:27;0.82;;;0.70;;
50757;SDS011;36732;47.980;11.652;2022-12-05T16:40:57;0.75;;;0.70;;
50757;SDS011;36732;47.980;11.652;2022-12-05T16:48:39;0.65;;;0.60;;
50757;SDS011;36732;47.980;11.652;2022-12-05T16:53:38;1.05;;;0.75;;
50757;SDS011;36732;47.980;11.652;2022-12-05T16:56:21;1.02;;;0.90;;
50757;SDS011;36732;47.980;11.652;2022-12-05T16:58:54;1.48;;;0.73;;
50757;SDS011;36732;47.980;11.652;2022-12-05T17:01:22;2.67;;;1.95;;
50757;SDS011;36732;47.980;11.652;2022-12-05T17:03:50;1.60;;;1.20;;
50757;SDS011;36732;47.980;11.652;2022-12-05T17:06:20;0.95;;;0.90;;
50757;SDS011;36732;47.980;11.652;2022-12-05T17:08:48;0.93;;;0.70;;
50757;SDS011;36732;47.980;11.652;2022-12-05T17:11:16;1.15;;;1.05;;
50757;SDS011;36732;47.980;11.652;2022-12-05T17:13:49;1.20;;;0.90;;
50757;SDS011;36732;47.980;11.652;2022-12-05T17:16:16;1.20;;;1.10;;
50757;SDS011;36732;47.980;11.652;2022-12-05T17:18:43;0.90;;;0.90;;
50757;SDS011;36732;47.980;11.652;2022-12-05T17:21:16;1.20;;;1.10;;
50757;SDS011;36732;47.980;11.652;2022-12-05T17:23:47;0.95;;;0.90;;
50757;SDS011;36732;47.980;11.652;2022-12-05T17:26:14;1.20;;;1.10;;
50757;SDS011;36732;47.980;11.652;2022-12-05T17:28:43;0.80;;;0.80;;
50757;SDS011;36732;47.980;11.652;2022-12-05T17:31:11;1.17;;;1.08;;
50757;SDS011;36732;47.980;11.652;2022-12-05T17:33:42;1.35;;;1.00;;
50757;SDS011;36732;47.980;11.652;2022-12-05T17:36:09;1.50;;;1.40;;
50757;SDS011;36732;47.980;11.652;2022-12-05T17:38:35;2.33;;;2.13;;
50757;SDS011;36732;47.980;11.652;2022-12-05T17:41:01;2.15;;;2.03;;
50757;SDS011;36732;47.980;11.652;2022-12-05T17:43:27;1.60;;;1.50;;
50757;SDS011;36732;47.980;11.652;2022-12-05T17:45:53;2.38;;;2.17;;
50757;SDS011;36732;47.980;11.652;2022-12-05T17:48:19;1.65;;;1.35;;
50757;SDS011;36732;47.980;11.652;2022-12-05T17:50:46;3.00;;;1.38;;
50757;SDS011;36732;47.980;11.652;2022-12-05T17:53:17;0.82;;;0.70;;
50757;SDS011;36732;47.980;11.652;2022-12-05T17:55:45;0.70;;;0.70;;
50757;SDS011;36732;47.980;11.652;2022-12-05T17:58:15;1.70;;;1.00;;
50757;SDS011;36732;47.980;11.652;2022-12-05T18:00:42;1.55;;;1.45;;
50757;SDS011;36732;47.980;11.652;2022-12-05T18:03:12;1.30;;;1.20;;
50757;SDS011;36732;47.980;11.652;2022-12-05T18:05:43;1.63;;;0.90;;
50757;SDS011;36732;47.980;11.652;2022-12-05T18:08:10;1.17;;;1.08;;
50757;SDS011;36732;47.980;11.652;2022-12-05T18:10:39;1.10;;;1.00;;
50757;SDS011;36732;47.980;11.652;2022-12-05T18:13:07;1.20;;;1.10;;
50757;SDS011;36732;47.980;11.652;2022-12-05T18:15:34;2.30;;;1.10;;
50757;SDS011;36732;47.980;11.652;2022-12-05T18:18:00;0.77;;;0.77;;
50757;SDS011;36732;47.980;11.652;2022-12-05T18:20:31;0.57;;;0.50;;
50757;SDS011;36732;47.980;11.652;2022-12-05T18:22:57;0.70;;;0.68;;
50757;SDS011;36732;47.980;11.652;2022-12-05T18:25:23;3.00;;;0.98;;
50757;SDS011;36732;47.980;11.652;2022-12-05T18:27:49;0.50;;;0.50;;
50757;SDS011;36732;47.980;11.652;2022-12-05T18:30:15;0.77;;;0.77;;
50757;SDS011;36732;47.980;11.652;2022-12-05T18:32:41;0.60;;;0.60;;
50757;SDS011;36732;47.980;11.652;2022-12-05T18:35:07;0.70;;;0.70;;
50757;SDS011;36732;47.980;11.652;2022-12-05T18:37:35;0.80;;;0.70;;
50757;SDS011;36732;47.980;11.652;2022-12-05T18:40:01;0.88;;;0.77;;
50757;SDS011;36732;47.980;11.652;2022-12-05T18:42:28;0.70;;;0.57;;
50757;SDS011;36732;47.980;11.652;2022-12-05T18:44:54;0.50;;;0.50;;
50757;SDS011;36732;47.980;11.652;2022-12-05T18:47:20;0.40;;;0.40;;
50757;SDS011;36732;47.980;11.652;2022-12-05T18:49:45;0.40;;;0.40;;
50757;SDS011;36732;47.980;11.652;2022-12-05T18:52:11;0.47;;;0.47;;
50757;SDS011;36732;47.980;11.652;2022-12-05T18:54:37;0.50;;;0.50;;
50757;SDS011;36732;47.980;11.652;2022-12-05T18:57:03;0.60;;;0.60;;
50757;SDS011;36732;47.980;11.652;2022-12-05T18:59:28;1.23;;;1.13;;